sensor_id;sensor_type;location;lat;lon;timestamp;P1;durP1;ratioP1;P2;durP2;ratioP2
64619;SDS011;51029;51.058;13.826;2022-12-18T00:01:56;37.90;;;22.70;;
64619;SDS011;51029;51.058;13.826;2022-12-18T00:04:24;43.13;;;24.07;;
64619;SDS011;51029;51.058;13.826;2022-12-18T00:06:51;40.07;;;22.93;;
64619;SDS011;51029;51.058;13.826;2022-12-18T00:09:17;39.47;;;21.80;;
64619;SDS011;51029;51.058;13.826;2022-12-18T00:11:43;42.90;;;22.60;;
64619;SDS011;51029;51.058;13.826;2022-12-18T00:14:09;41.27;;;22.50;;
64619;SDS011;51029;51.058;13.826;2022-12-18T00:16:37;40.88;;;22.85;;
64619;SDS011;51029;51.058;13.826;2022-12-18T00:19:03;45.40;;;23.00;;
64619;SDS011;51029;51.058;13.826;2022-12-18T00:21:30;41.43;;;22.57;;
64619;SDS011;51029;51.058;13.826;2022-12-18T00:23:56;42.45;;;22.85;;
64619;SDS011;51029;51.058;13.826;2022-12-18T00:26:24;40.38;;;21.77;;
64619;SDS011;51029;51.058;13.826;2022-12-18T00:28:51;43.57;;;22.97;;
64619;SDS011;51029;51.058;13.826;2022-12-18T00:31:21;39.45;;;22.17;;
64619;SDS011;51029;51.058;13.826;2022-12-18T00:33:48;42.60;;;21.97;;
64619;SDS011;51029;51.058;13.826;2022-12-18T00:36:18;44.37;;;22.90;;
64619;SDS011;51029;51.058;13.826;2022-12-18T00:38:45;40.40;;;21.43;;
64619;SDS011;51029;51.058;13.826;2022-12-18T00:41:11;40.17;;;21.13;;
64619;SDS011;51029;51.058;13.826;2022-12-18T00:43:39;42.00;;;23.00;;
64619;SDS011;51029;51.058;13.826;2022-12-18T00:46:05;42.47;;;21.67;;
64619;SDS011;51029;51.058;13.826;2022-12-18T00:48:31;38.47;;;21.70;;
64619;SDS011;51029;51.058;13.826;2022-12-18T00:50:57;40.95;;;22.88;;
64619;SDS011;51029;51.058;13.826;2022-12-18T00:53:23;38.73;;;22.10;;
64619;SDS011;51029;51.058;13.826;2022-12-18T00:55:48;40.80;;;22.70;;
64619;SDS011;51029;51.058;13.826;2022-12-18T00:58:14;37.83;;;21.47;;
64619;SDS011;51029;51.058;13.826;2022-12-18T01:00:41;43.73;;;23.27;;
64619;SDS011;51029;51.058;13.826;2022-12-18T01:03:07;39.67;;;20.90;;
64619;SDS011;51029;51.058;13.826;2022-12-18T01:05:33;37.40;;;21.33;;
64619;SDS011;51029;51.058;13.826;2022-12-18T01:07:58;42.03;;;21.83;;
64619;SDS011;51029;51.058;13.826;2022-12-18T01:10:24;41.10;;;21.17;;
64619;SDS011;51029;51.058;13.826;2022-12-18T01:12:50;42.10;;;21.67;;
64619;SDS011;51029;51.058;13.826;2022-12-18T01:15:17;43.70;;;22.63;;
64619;SDS011;51029;51.058;13.826;2022-12-18T01:17:43;40.90;;;21.53;;
64619;SDS011;51029;51.058;13.826;2022-12-18T01:20:09;41.60;;;20.80;;
64619;SDS011;51029;51.058;13.826;2022-12-18T01:22:36;41.73;;;21.63;;
64619;SDS011;51029;51.058;13.826;2022-12-18T01:25:03;35.40;;;19.90;;
64619;SDS011;51029;51.058;13.826;2022-12-18T01:27:29;36.43;;;18.77;;
64619;SDS011;51029;51.058;13.826;2022-12-18T01:29:55;39.47;;;20.17;;
64619;SDS011;51029;51.058;13.826;2022-12-18T01:32:21;40.73;;;20.50;;
64619;SDS011;51029;51.058;13.826;2022-12-18T01:34:47;39.28;;;19.88;;
64619;SDS011;51029;51.058;13.826;2022-12-18T01:37:12;40.80;;;20.87;;
64619;SDS011;51029;51.058;13.826;2022-12-18T01:39:38;37.27;;;20.03;;
64619;SDS011;51029;51.058;13.826;2022-12-18T01:42:05;37.30;;;20.53;;
64619;SDS011;51029;51.058;13.826;2022-12-18T01:47:32;42.45;;;21.08;;
64619;SDS011;51029;51.058;13.826;2022-12-18T01:50:09;45.25;;;21.05;;
64619;SDS011;51029;51.058;13.826;2022-12-18T01:52:35;41.85;;;21.25;;
64619;SDS011;51029;51.058;13.826;2022-12-18T01:55:06;39.90;;;20.60;;
64619;SDS011;51029;51.058;13.826;2022-12-18T01:57:33;40.50;;;20.55;;
64619;SDS011;51029;51.058;13.826;2022-12-18T02:00:01;44.03;;;22.23;;
64619;SDS011;51029;51.058;13.826;2022-12-18T02:02:35;41.93;;;21.37;;
64619;SDS011;51029;51.058;13.826;2022-12-18T02:05:00;44.73;;;21.30;;
64619;SDS011;51029;51.058;13.826;2022-12-18T02:12:42;41.13;;;21.13;;
64619;SDS011;51029;51.058;13.826;2022-12-18T02:15:15;43.67;;;20.88;;
64619;SDS011;51029;51.058;13.826;2022-12-18T02:17:54;44.58;;;22.00;;
64619;SDS011;51029;51.058;13.826;2022-12-18T02:20:25;42.85;;;21.83;;
64619;SDS011;51029;51.058;13.826;2022-12-18T02:23:06;48.10;;;21.98;;
64619;SDS011;51029;51.058;13.826;2022-12-18T02:28:42;43.47;;;21.02;;
64619;SDS011;51029;51.058;13.826;2022-12-18T02:31:28;41.13;;;20.27;;
64619;SDS011;51029;51.058;13.826;2022-12-18T02:34:01;40.28;;;20.20;;
64619;SDS011;51029;51.058;13.826;2022-12-18T02:36:29;43.58;;;20.58;;
64619;SDS011;51029;51.058;13.826;2022-12-18T02:38:57;37.65;;;19.52;;
64619;SDS011;51029;51.058;13.826;2022-12-18T02:41:24;41.95;;;19.63;;
64619;SDS011;51029;51.058;13.826;2022-12-18T02:43:55;41.10;;;20.25;;
64619;SDS011;51029;51.058;13.826;2022-12-18T02:46:30;37.67;;;19.08;;
64619;SDS011;51029;51.058;13.826;2022-12-18T02:49:03;41.40;;;20.55;;
64619;SDS011;51029;51.058;13.826;2022-12-18T02:51:53;39.20;;;19.13;;
64619;SDS011;51029;51.058;13.826;2022-12-18T02:56:53;42.53;;;21.00;;
64619;SDS011;51029;51.058;13.826;2022-12-18T02:59:27;41.25;;;19.92;;
64619;SDS011;51029;51.058;13.826;2022-12-18T03:02:01;45.38;;;20.00;;
64619;SDS011;51029;51.058;13.826;2022-12-18T03:04:30;39.15;;;19.65;;
64619;SDS011;51029;51.058;13.826;2022-12-18T03:07:04;37.97;;;18.77;;
64619;SDS011;51029;51.058;13.826;2022-12-18T03:09:36;36.88;;;19.63;;
64619;SDS011;51029;51.058;13.826;2022-12-18T03:12:08;40.08;;;20.48;;
64619;SDS011;51029;51.058;13.826;2022-12-18T03:15:01;41.55;;;19.23;;
64619;SDS011;51029;51.058;13.826;2022-12-18T03:17:37;39.22;;;18.60;;
64619;SDS011;51029;51.058;13.826;2022-12-18T03:20:08;39.95;;;19.20;;
64619;SDS011;51029;51.058;13.826;2022-12-18T03:22:37;38.75;;;18.35;;
64619;SDS011;51029;51.058;13.826;2022-12-18T03:25:06;35.72;;;18.65;;
64619;SDS011;51029;51.058;13.826;2022-12-18T03:27:36;35.40;;;17.48;;
64619;SDS011;51029;51.058;13.826;2022-12-18T03:30:07;37.03;;;18.88;;
64619;SDS011;51029;51.058;13.826;2022-12-18T03:32:47;38.75;;;18.40;;
64619;SDS011;51029;51.058;13.826;2022-12-18T03:35:29;33.72;;;17.27;;
64619;SDS011;51029;51.058;13.826;2022-12-18T03:37:59;34.08;;;18.20;;
64619;SDS011;51029;51.058;13.826;2022-12-18T03:41:11;30.57;;;17.70;;
64619;SDS011;51029;51.058;13.826;2022-12-18T03:43:36;33.15;;;16.95;;
64619;SDS011;51029;51.058;13.826;2022-12-18T03:46:26;33.80;;;16.90;;
64619;SDS011;51029;51.058;13.826;2022-12-18T03:49:23;35.95;;;16.92;;
64619;SDS011;51029;51.058;13.826;2022-12-18T03:51:54;34.47;;;15.88;;
64619;SDS011;51029;51.058;13.826;2022-12-18T03:54:30;36.53;;;16.92;;
64619;SDS011;51029;51.058;13.826;2022-12-18T03:57:02;32.78;;;17.20;;
64619;SDS011;51029;51.058;13.826;2022-12-18T03:59:31;34.35;;;16.13;;
64619;SDS011;51029;51.058;13.826;2022-12-18T04:01:58;32.03;;;15.95;;
64619;SDS011;51029;51.058;13.826;2022-12-18T04:04:26;30.65;;;15.27;;
64619;SDS011;51029;51.058;13.826;2022-12-18T04:06:53;28.45;;;15.30;;
64619;SDS011;51029;51.058;13.826;2022-12-18T04:09:21;28.80;;;15.00;;
64619;SDS011;51029;51.058;13.826;2022-12-18T04:11:46;29.40;;;15.65;;
64619;SDS011;51029;51.058;13.826;2022-12-18T04:14:12;27.00;;;15.07;;
64619;SDS011;51029;51.058;13.826;2022-12-18T04:16:38;27.47;;;14.73;;
64619;SDS011;51029;51.058;13.826;2022-12-18T04:19:04;30.13;;;14.97;;
64619;SDS011;51029;51.058;13.826;2022-12-18T04:21:30;24.85;;;14.13;;
64619;SDS011;51029;51.058;13.826;2022-12-18T04:23:56;27.33;;;14.93;;
64619;SDS011;51029;51.058;13.826;2022-12-18T04:26:21;27.10;;;13.77;;
64619;SDS011;51029;51.058;13.826;2022-12-18T04:28:47;26.70;;;14.30;;
64619;SDS011;51029;51.058;13.826;2022-12-18T04:31:12;24.33;;;13.77;;
64619;SDS011;51029;51.058;13.826;2022-12-18T04:33:38;25.37;;;14.07;;
64619;SDS011;51029;51.058;13.826;2022-12-18T04:36:04;25.53;;;14.17;;
64619;SDS011;51029;51.058;13.826;2022-12-18T04:38:30;22.48;;;13.02;;
64619;SDS011;51029;51.058;13.826;2022-12-18T04:40:55;26.03;;;13.40;;
64619;SDS011;51029;51.058;13.826;2022-12-18T04:43:21;21.53;;;12.87;;
64619;SDS011;51029;51.058;13.826;2022-12-18T04:45:47;22.30;;;13.17;;
64619;SDS011;51029;51.058;13.826;2022-12-18T04:48:12;24.27;;;13.57;;
64619;SDS011;51029;51.058;13.826;2022-12-18T04:50:38;25.73;;;13.63;;
64619;SDS011;51029;51.058;13.826;2022-12-18T04:53:03;24.73;;;13.27;;
64619;SDS011;51029;51.058;13.826;2022-12-18T04:55:29;20.83;;;11.80;;
64619;SDS011;51029;51.058;13.826;2022-12-18T04:57:55;24.43;;;13.10;;
64619;SDS011;51029;51.058;13.826;2022-12-18T05:00:21;24.87;;;12.80;;
64619;SDS011;51029;51.058;13.826;2022-12-18T05:02:46;22.63;;;13.00;;
64619;SDS011;51029;51.058;13.826;2022-12-18T05:05:12;26.43;;;12.83;;
64619;SDS011;51029;51.058;13.826;2022-12-18T05:07:38;27.17;;;13.73;;
64619;SDS011;51029;51.058;13.826;2022-12-18T05:10:04;24.53;;;12.83;;
64619;SDS011;51029;51.058;13.826;2022-12-18T05:12:31;24.98;;;13.60;;
64619;SDS011;51029;51.058;13.826;2022-12-18T05:14:57;24.60;;;13.03;;
64619;SDS011;51029;51.058;13.826;2022-12-18T05:17:23;24.87;;;12.53;;
64619;SDS011;51029;51.058;13.826;2022-12-18T05:19:48;24.40;;;13.67;;
64619;SDS011;51029;51.058;13.826;2022-12-18T05:22:14;24.83;;;13.57;;
64619;SDS011;51029;51.058;13.826;2022-12-18T05:24:40;23.95;;;13.43;;
64619;SDS011;51029;51.058;13.826;2022-12-18T05:27:06;25.13;;;13.67;;
64619;SDS011;51029;51.058;13.826;2022-12-18T05:29:31;26.43;;;13.23;;
64619;SDS011;51029;51.058;13.826;2022-12-18T05:31:57;25.23;;;13.70;;
64619;SDS011;51029;51.058;13.826;2022-12-18T05:34:22;22.50;;;12.93;;
64619;SDS011;51029;51.058;13.826;2022-12-18T05:36:48;25.87;;;13.37;;
64619;SDS011;51029;51.058;13.826;2022-12-18T05:39:14;23.53;;;13.10;;
64619;SDS011;51029;51.058;13.826;2022-12-18T05:41:39;22.60;;;13.23;;
64619;SDS011;51029;51.058;13.826;2022-12-18T05:44:05;25.73;;;13.63;;
64619;SDS011;51029;51.058;13.826;2022-12-18T05:46:30;23.53;;;12.77;;
64619;SDS011;51029;51.058;13.826;2022-12-18T05:48:58;25.00;;;13.13;;
64619;SDS011;51029;51.058;13.826;2022-12-18T05:51:24;24.77;;;13.68;;
64619;SDS011;51029;51.058;13.826;2022-12-18T05:53:50;26.43;;;13.43;;
64619;SDS011;51029;51.058;13.826;2022-12-18T05:56:17;27.33;;;14.10;;
64619;SDS011;51029;51.058;13.826;2022-12-18T05:58:45;27.88;;;14.07;;
64619;SDS011;51029;51.058;13.826;2022-12-18T06:01:12;29.27;;;15.07;;
64619;SDS011;51029;51.058;13.826;2022-12-18T06:03:40;26.83;;;13.40;;
64619;SDS011;51029;51.058;13.826;2022-12-18T06:06:25;26.93;;;14.37;;
64619;SDS011;51029;51.058;13.826;2022-12-18T06:08:52;26.20;;;14.70;;
64619;SDS011;51029;51.058;13.826;2022-12-18T06:11:19;30.23;;;14.93;;
64619;SDS011;51029;51.058;13.826;2022-12-18T06:13:50;27.47;;;14.47;;
64619;SDS011;51029;51.058;13.826;2022-12-18T06:16:16;28.20;;;14.83;;
64619;SDS011;51029;51.058;13.826;2022-12-18T06:18:42;28.17;;;14.73;;
64619;SDS011;51029;51.058;13.826;2022-12-18T06:21:07;30.10;;;15.20;;
64619;SDS011;51029;51.058;13.826;2022-12-18T06:23:33;26.30;;;14.53;;
64619;SDS011;51029;51.058;13.826;2022-12-18T06:26:02;32.50;;;15.97;;
64619;SDS011;51029;51.058;13.826;2022-12-18T06:28:32;31.80;;;15.50;;
64619;SDS011;51029;51.058;13.826;2022-12-18T06:30:58;30.83;;;15.33;;
64619;SDS011;51029;51.058;13.826;2022-12-18T06:33:25;29.90;;;15.87;;
64619;SDS011;51029;51.058;13.826;2022-12-18T06:35:52;33.30;;;16.17;;
64619;SDS011;51029;51.058;13.826;2022-12-18T06:38:19;29.27;;;15.25;;
64619;SDS011;51029;51.058;13.826;2022-12-18T06:40:44;35.17;;;17.00;;
64619;SDS011;51029;51.058;13.826;2022-12-18T06:43:10;28.20;;;15.63;;
64619;SDS011;51029;51.058;13.826;2022-12-18T06:45:35;32.13;;;17.00;;
64619;SDS011;51029;51.058;13.826;2022-12-18T06:48:01;30.23;;;16.10;;
64619;SDS011;51029;51.058;13.826;2022-12-18T06:50:26;25.90;;;14.70;;
64619;SDS011;51029;51.058;13.826;2022-12-18T06:52:52;24.87;;;14.83;;
64619;SDS011;51029;51.058;13.826;2022-12-18T06:55:17;43.17;;;19.23;;
64619;SDS011;51029;51.058;13.826;2022-12-18T06:57:43;30.90;;;15.87;;
64619;SDS011;51029;51.058;13.826;2022-12-18T07:00:09;34.50;;;17.53;;
64619;SDS011;51029;51.058;13.826;2022-12-18T07:02:36;30.83;;;15.73;;
64619;SDS011;51029;51.058;13.826;2022-12-18T07:05:01;32.23;;;16.00;;
64619;SDS011;51029;51.058;13.826;2022-12-18T07:07:27;33.27;;;18.43;;
64619;SDS011;51029;51.058;13.826;2022-12-18T07:09:52;34.40;;;18.27;;
64619;SDS011;51029;51.058;13.826;2022-12-18T07:12:18;39.83;;;19.47;;
64619;SDS011;51029;51.058;13.826;2022-12-18T07:14:43;36.63;;;18.67;;
64619;SDS011;51029;51.058;13.826;2022-12-18T07:17:09;38.73;;;19.10;;
64619;SDS011;51029;51.058;13.826;2022-12-18T07:19:35;36.10;;;18.77;;
64619;SDS011;51029;51.058;13.826;2022-12-18T07:22:00;35.87;;;18.03;;
64619;SDS011;51029;51.058;13.826;2022-12-18T07:24:26;31.03;;;16.83;;
64619;SDS011;51029;51.058;13.826;2022-12-18T07:26:51;34.20;;;17.80;;
64619;SDS011;51029;51.058;13.826;2022-12-18T07:29:17;32.73;;;16.83;;
64619;SDS011;51029;51.058;13.826;2022-12-18T07:31:43;32.90;;;17.97;;
64619;SDS011;51029;51.058;13.826;2022-12-18T07:34:14;31.60;;;16.90;;
64619;SDS011;51029;51.058;13.826;2022-12-18T07:36:40;33.10;;;16.50;;
64619;SDS011;51029;51.058;13.826;2022-12-18T07:39:06;32.67;;;16.73;;
64619;SDS011;51029;51.058;13.826;2022-12-18T07:41:32;38.67;;;17.47;;
64619;SDS011;51029;51.058;13.826;2022-12-18T07:43:58;37.63;;;19.33;;
64619;SDS011;51029;51.058;13.826;2022-12-18T07:46:24;37.70;;;19.57;;
64619;SDS011;51029;51.058;13.826;2022-12-18T07:48:49;38.17;;;20.57;;
64619;SDS011;51029;51.058;13.826;2022-12-18T07:51:15;36.77;;;20.23;;
64619;SDS011;51029;51.058;13.826;2022-12-18T07:53:41;37.50;;;19.37;;
64619;SDS011;51029;51.058;13.826;2022-12-18T07:56:08;30.57;;;17.07;;
64619;SDS011;51029;51.058;13.826;2022-12-18T07:58:36;30.37;;;18.43;;
64619;SDS011;51029;51.058;13.826;2022-12-18T08:01:05;33.33;;;18.03;;
64619;SDS011;51029;51.058;13.826;2022-12-18T08:03:32;36.70;;;19.53;;
64619;SDS011;51029;51.058;13.826;2022-12-18T08:06:02;35.40;;;19.53;;
64619;SDS011;51029;51.058;13.826;2022-12-18T08:08:29;33.57;;;18.37;;
64619;SDS011;51029;51.058;13.826;2022-12-18T08:10:55;35.70;;;18.20;;
64619;SDS011;51029;51.058;13.826;2022-12-18T08:13:22;35.33;;;18.87;;
64619;SDS011;51029;51.058;13.826;2022-12-18T08:16:01;32.63;;;18.00;;
64619;SDS011;51029;51.058;13.826;2022-12-18T08:18:29;32.07;;;16.83;;
64619;SDS011;51029;51.058;13.826;2022-12-18T08:20:56;30.43;;;17.73;;
64619;SDS011;51029;51.058;13.826;2022-12-18T08:23:22;30.50;;;16.53;;
64619;SDS011;51029;51.058;13.826;2022-12-18T08:25:47;32.10;;;16.87;;
64619;SDS011;51029;51.058;13.826;2022-12-18T08:28:13;31.17;;;18.20;;
64619;SDS011;51029;51.058;13.826;2022-12-18T08:30:41;32.67;;;18.30;;
64619;SDS011;51029;51.058;13.826;2022-12-18T08:33:07;35.43;;;17.30;;
64619;SDS011;51029;51.058;13.826;2022-12-18T08:35:35;33.37;;;17.57;;
64619;SDS011;51029;51.058;13.826;2022-12-18T08:38:01;47.60;;;25.60;;
64619;SDS011;51029;51.058;13.826;2022-12-18T08:40:28;37.87;;;21.30;;
64619;SDS011;51029;51.058;13.826;2022-12-18T08:42:53;36.47;;;16.93;;
64619;SDS011;51029;51.058;13.826;2022-12-18T08:45:37;38.03;;;20.30;;
64619;SDS011;51029;51.058;13.826;2022-12-18T08:48:03;34.60;;;20.30;;
64619;SDS011;51029;51.058;13.826;2022-12-18T08:50:28;30.90;;;18.87;;
64619;SDS011;51029;51.058;13.826;2022-12-18T08:52:54;38.83;;;20.03;;
64619;SDS011;51029;51.058;13.826;2022-12-18T08:55:19;37.33;;;21.40;;
64619;SDS011;51029;51.058;13.826;2022-12-18T08:57:47;35.87;;;19.37;;
64619;SDS011;51029;51.058;13.826;2022-12-18T09:00:14;33.97;;;19.53;;
64619;SDS011;51029;51.058;13.826;2022-12-18T09:02:40;35.57;;;18.67;;
64619;SDS011;51029;51.058;13.826;2022-12-18T09:05:06;33.67;;;19.63;;
64619;SDS011;51029;51.058;13.826;2022-12-18T09:07:31;39.17;;;19.67;;
64619;SDS011;51029;51.058;13.826;2022-12-18T09:09:57;31.33;;;18.53;;
64619;SDS011;51029;51.058;13.826;2022-12-18T09:12:23;33.80;;;18.70;;
64619;SDS011;51029;51.058;13.826;2022-12-18T09:14:48;33.43;;;18.50;;
64619;SDS011;51029;51.058;13.826;2022-12-18T09:17:14;43.37;;;24.53;;
64619;SDS011;51029;51.058;13.826;2022-12-18T09:19:39;99.63;;;51.53;;
64619;SDS011;51029;51.058;13.826;2022-12-18T09:22:05;33.97;;;19.50;;
64619;SDS011;51029;51.058;13.826;2022-12-18T09:24:30;31.23;;;18.27;;
64619;SDS011;51029;51.058;13.826;2022-12-18T09:26:56;31.10;;;18.93;;
64619;SDS011;51029;51.058;13.826;2022-12-18T09:29:22;31.80;;;19.30;;
64619;SDS011;51029;51.058;13.826;2022-12-18T09:31:47;29.43;;;18.30;;
64619;SDS011;51029;51.058;13.826;2022-12-18T09:34:14;40.37;;;24.63;;
64619;SDS011;51029;51.058;13.826;2022-12-18T09:36:40;43.07;;;27.17;;
64619;SDS011;51029;51.058;13.826;2022-12-18T09:39:05;30.53;;;18.20;;
64619;SDS011;51029;51.058;13.826;2022-12-18T09:41:47;30.07;;;19.53;;
64619;SDS011;51029;51.058;13.826;2022-12-18T09:49:45;29.67;;;18.57;;
64619;SDS011;51029;51.058;13.826;2022-12-18T09:52:17;28.43;;;18.17;;
64619;SDS011;51029;51.058;13.826;2022-12-18T09:55:03;31.37;;;20.73;;
64619;SDS011;51029;51.058;13.826;2022-12-18T09:57:35;32.90;;;19.07;;
64619;SDS011;51029;51.058;13.826;2022-12-18T10:02:43;28.90;;;18.90;;
64619;SDS011;51029;51.058;13.826;2022-12-18T10:05:14;27.60;;;18.47;;
64619;SDS011;51029;51.058;13.826;2022-12-18T10:13:28;30.00;;;19.00;;
64619;SDS011;51029;51.058;13.826;2022-12-18T10:21:03;28.83;;;18.47;;
64619;SDS011;51029;51.058;13.826;2022-12-18T10:26:22;27.27;;;17.80;;
64619;SDS011;51029;51.058;13.826;2022-12-18T10:28:49;26.03;;;17.63;;
64619;SDS011;51029;51.058;13.826;2022-12-18T10:31:16;25.43;;;18.07;;
64619;SDS011;51029;51.058;13.826;2022-12-18T10:33:44;28.73;;;19.00;;
64619;SDS011;51029;51.058;13.826;2022-12-18T10:36:10;26.53;;;18.43;;
64619;SDS011;51029;51.058;13.826;2022-12-18T10:38:36;28.87;;;18.87;;
64619;SDS011;51029;51.058;13.826;2022-12-18T10:41:24;26.43;;;18.10;;
64619;SDS011;51029;51.058;13.826;2022-12-18T10:46:40;26.43;;;17.70;;
64619;SDS011;51029;51.058;13.826;2022-12-18T10:49:07;25.10;;;18.17;;
64619;SDS011;51029;51.058;13.826;2022-12-18T10:54:58;27.93;;;20.30;;
64619;SDS011;51029;51.058;13.826;2022-12-18T11:02:54;32.70;;;20.23;;
64619;SDS011;51029;51.058;13.826;2022-12-18T11:05:31;28.77;;;20.70;;
64619;SDS011;51029;51.058;13.826;2022-12-18T11:07:58;28.10;;;20.33;;
64619;SDS011;51029;51.058;13.826;2022-12-18T11:10:30;31.00;;;19.87;;
64619;SDS011;51029;51.058;13.826;2022-12-18T11:15:56;27.87;;;19.23;;
64619;SDS011;51029;51.058;13.826;2022-12-18T11:18:27;29.13;;;18.90;;
64619;SDS011;51029;51.058;13.826;2022-12-18T11:23:34;28.30;;;18.30;;
64619;SDS011;51029;51.058;13.826;2022-12-18T11:26:01;27.17;;;18.37;;
64619;SDS011;51029;51.058;13.826;2022-12-18T11:28:42;30.63;;;19.10;;
64619;SDS011;51029;51.058;13.826;2022-12-18T11:31:19;28.80;;;17.70;;
64619;SDS011;51029;51.058;13.826;2022-12-18T11:33:58;30.33;;;19.40;;
64619;SDS011;51029;51.058;13.826;2022-12-18T11:36:25;27.70;;;17.80;;
64619;SDS011;51029;51.058;13.826;2022-12-18T11:38:57;27.07;;;18.03;;
64619;SDS011;51029;51.058;13.826;2022-12-18T11:41:31;28.07;;;17.77;;
64619;SDS011;51029;51.058;13.826;2022-12-18T11:44:41;29.23;;;17.63;;
64619;SDS011;51029;51.058;13.826;2022-12-18T11:47:11;28.67;;;18.53;;
64619;SDS011;51029;51.058;13.826;2022-12-18T11:49:47;27.60;;;17.63;;
64619;SDS011;51029;51.058;13.826;2022-12-18T11:52:22;28.83;;;17.90;;
64619;SDS011;51029;51.058;13.826;2022-12-18T11:54:52;25.47;;;17.23;;
64619;SDS011;51029;51.058;13.826;2022-12-18T12:00:17;26.83;;;18.00;;
64619;SDS011;51029;51.058;13.826;2022-12-18T12:11:41;28.93;;;17.67;;
64619;SDS011;51029;51.058;13.826;2022-12-18T12:16:55;23.37;;;16.10;;
64619;SDS011;51029;51.058;13.826;2022-12-18T12:19:48;30.23;;;18.57;;
64619;SDS011;51029;51.058;13.826;2022-12-18T12:22:40;25.33;;;15.73;;
64619;SDS011;51029;51.058;13.826;2022-12-18T12:25:40;23.17;;;15.10;;
64619;SDS011;51029;51.058;13.826;2022-12-18T12:36:20;29.37;;;18.30;;
64619;SDS011;51029;51.058;13.826;2022-12-18T12:39:15;26.20;;;16.57;;
64619;SDS011;51029;51.058;13.826;2022-12-18T12:41:44;22.67;;;15.77;;
64619;SDS011;51029;51.058;13.826;2022-12-18T12:44:38;25.03;;;16.27;;
64619;SDS011;51029;51.058;13.826;2022-12-18T12:47:14;25.53;;;16.07;;
64619;SDS011;51029;51.058;13.826;2022-12-18T12:49:45;25.37;;;16.53;;
64619;SDS011;51029;51.058;13.826;2022-12-18T12:52:34;24.17;;;17.00;;
64619;SDS011;51029;51.058;13.826;2022-12-18T12:55:06;28.37;;;16.83;;
64619;SDS011;51029;51.058;13.826;2022-12-18T12:57:59;28.00;;;17.13;;
64619;SDS011;51029;51.058;13.826;2022-12-18T13:03:43;27.90;;;17.03;;
64619;SDS011;51029;51.058;13.826;2022-12-18T13:08:59;27.07;;;16.53;;
64619;SDS011;51029;51.058;13.826;2022-12-18T13:11:45;23.73;;;16.20;;
64619;SDS011;51029;51.058;13.826;2022-12-18T13:14:31;26.00;;;16.27;;
64619;SDS011;51029;51.058;13.826;2022-12-18T13:20:09;28.97;;;17.13;;
64619;SDS011;51029;51.058;13.826;2022-12-18T13:30:47;30.60;;;18.37;;
64619;SDS011;51029;51.058;13.826;2022-12-18T13:36:29;27.30;;;17.27;;
64619;SDS011;51029;51.058;13.826;2022-12-18T13:41:46;26.27;;;16.40;;
64619;SDS011;51029;51.058;13.826;2022-12-18T13:44:32;27.47;;;15.60;;
64619;SDS011;51029;51.058;13.826;2022-12-18T13:47:00;25.97;;;15.93;;
64619;SDS011;51029;51.058;13.826;2022-12-18T13:52:02;27.87;;;15.97;;
64619;SDS011;51029;51.058;13.826;2022-12-18T13:54:39;26.40;;;15.93;;
64619;SDS011;51029;51.058;13.826;2022-12-18T13:57:24;25.80;;;14.43;;
64619;SDS011;51029;51.058;13.826;2022-12-18T14:02:46;21.10;;;13.53;;
64619;SDS011;51029;51.058;13.826;2022-12-18T14:05:28;24.43;;;14.70;;
64619;SDS011;51029;51.058;13.826;2022-12-18T14:08:00;22.77;;;13.90;;
64619;SDS011;51029;51.058;13.826;2022-12-18T14:10:30;20.73;;;14.57;;
64619;SDS011;51029;51.058;13.826;2022-12-18T14:12:56;21.20;;;13.83;;
64619;SDS011;51029;51.058;13.826;2022-12-18T14:15:31;22.43;;;13.83;;
64619;SDS011;51029;51.058;13.826;2022-12-18T14:17:59;22.63;;;13.37;;
64619;SDS011;51029;51.058;13.826;2022-12-18T14:20:29;22.27;;;13.53;;
64619;SDS011;51029;51.058;13.826;2022-12-18T14:22:57;23.30;;;14.63;;
64619;SDS011;51029;51.058;13.826;2022-12-18T14:25:26;24.07;;;14.83;;
64619;SDS011;51029;51.058;13.826;2022-12-18T14:27:59;23.87;;;14.10;;
64619;SDS011;51029;51.058;13.826;2022-12-18T14:30:36;21.93;;;14.13;;
64619;SDS011;51029;51.058;13.826;2022-12-18T14:33:10;23.00;;;14.50;;
64619;SDS011;51029;51.058;13.826;2022-12-18T14:35:42;27.10;;;15.50;;
64619;SDS011;51029;51.058;13.826;2022-12-18T14:38:23;27.67;;;15.17;;
64619;SDS011;51029;51.058;13.826;2022-12-18T14:43:32;26.27;;;15.70;;
64619;SDS011;51029;51.058;13.826;2022-12-18T14:46:00;22.97;;;13.77;;
64619;SDS011;51029;51.058;13.826;2022-12-18T14:51:12;23.23;;;14.40;;
64619;SDS011;51029;51.058;13.826;2022-12-18T14:53:46;25.57;;;14.73;;
64619;SDS011;51029;51.058;13.826;2022-12-18T14:56:20;25.30;;;14.20;;
64619;SDS011;51029;51.058;13.826;2022-12-18T14:58:51;25.50;;;15.43;;
64619;SDS011;51029;51.058;13.826;2022-12-18T15:01:30;22.10;;;14.70;;
64619;SDS011;51029;51.058;13.826;2022-12-18T15:04:00;23.50;;;13.93;;
64619;SDS011;51029;51.058;13.826;2022-12-18T15:06:37;24.63;;;14.57;;
64619;SDS011;51029;51.058;13.826;2022-12-18T15:09:26;24.90;;;14.53;;
64619;SDS011;51029;51.058;13.826;2022-12-18T15:11:55;24.17;;;14.73;;
64619;SDS011;51029;51.058;13.826;2022-12-18T15:17:03;25.13;;;15.37;;
64619;SDS011;51029;51.058;13.826;2022-12-18T15:19:36;28.13;;;14.70;;
64619;SDS011;51029;51.058;13.826;2022-12-18T15:22:04;23.20;;;13.70;;
64619;SDS011;51029;51.058;13.826;2022-12-18T15:25:20;26.17;;;14.80;;
64619;SDS011;51029;51.058;13.826;2022-12-18T15:28:01;26.40;;;14.57;;
64619;SDS011;51029;51.058;13.826;2022-12-18T15:30:27;25.27;;;14.87;;
64619;SDS011;51029;51.058;13.826;2022-12-18T15:33:15;32.70;;;17.80;;
64619;SDS011;51029;51.058;13.826;2022-12-18T15:35:55;29.57;;;17.20;;
64619;SDS011;51029;51.058;13.826;2022-12-18T15:38:25;29.27;;;15.60;;
64619;SDS011;51029;51.058;13.826;2022-12-18T15:40:52;26.50;;;14.50;;
64619;SDS011;51029;51.058;13.826;2022-12-18T15:43:19;29.40;;;15.73;;
64619;SDS011;51029;51.058;13.826;2022-12-18T15:48:27;26.50;;;15.47;;
64619;SDS011;51029;51.058;13.826;2022-12-18T15:50:53;23.27;;;14.60;;
64619;SDS011;51029;51.058;13.826;2022-12-18T15:53:22;26.60;;;15.53;;
64619;SDS011;51029;51.058;13.826;2022-12-18T15:55:48;29.70;;;16.20;;
64619;SDS011;51029;51.058;13.826;2022-12-18T15:58:33;30.93;;;15.97;;
64619;SDS011;51029;51.058;13.826;2022-12-18T16:00:59;28.43;;;16.00;;
64619;SDS011;51029;51.058;13.826;2022-12-18T16:03:25;30.37;;;16.73;;
64619;SDS011;51029;51.058;13.826;2022-12-18T16:05:51;30.70;;;17.00;;
64619;SDS011;51029;51.058;13.826;2022-12-18T16:08:17;30.73;;;16.37;;
64619;SDS011;51029;51.058;13.826;2022-12-18T16:10:42;28.10;;;16.13;;
64619;SDS011;51029;51.058;13.826;2022-12-18T16:13:15;32.57;;;17.13;;
64619;SDS011;51029;51.058;13.826;2022-12-18T16:15:43;26.83;;;14.67;;
64619;SDS011;51029;51.058;13.826;2022-12-18T16:18:09;30.13;;;16.53;;
64619;SDS011;51029;51.058;13.826;2022-12-18T16:20:35;28.77;;;15.50;;